Time;durP1;ratioP1;P1;durP2;ratioP2;P2;SDS_P1;SDS_P2;PMS_P1;PMS_P2;Temp;Humidity;BMP_temperature;BMP_pressure;BME280_temperature;BME280_humidity;BME280_pressure;Samples;Min_cycle;Max_cycle;Signal;HPM_P1;HPM_P2
2023/09/16 00:01:36;;;;;;;8.50;6.70;;;;;;;12.20;100.00;99437.52;109634;1250;59831;-72
2023/09/16 00:04:03;;;;;;;10.10;7.40;;;;;;;12.19;100.00;99431.70;109610;1250;64068;-72
2023/09/16 00:06:30;;;;;;;11.10;7.50;;;;;;;12.18;100.00;99434.98;109431;1251;58972;-72
2023/09/16 00:08:56;;;;;;;12.20;7.70;;;;;;;12.16;100.00;99436.34;109609;1251;58905;-72
2023/09/16 00:11:25;;;;;;;9.70;6.40;;;;;;;12.15;100.00;99436.23;109579;1250;64812;-72
2023/09/16 00:13:52;;;;;;;9.20;7.60;;;;;;;12.16;100.00;99436.05;109565;1250;60336;-72
2023/09/16 00:16:18;;;;;;;10.80;7.20;;;;;;;12.14;100.00;99438.45;109621;1251;63947;-72
2023/09/16 00:18:45;;;;;;;9.40;7.00;;;;;;;12.12;100.00;99442.36;109357;1251;59014;-73
2023/09/16 00:21:11;;;;;;;9.50;7.10;;;;;;;12.09;100.00;99439.84;109629;1250;59014;-72
2023/09/16 00:23:38;;;;;;;9.60;8.30;;;;;;;12.08;100.00;99437.44;109597;1250;64830;-72
2023/09/16 00:26:05;;;;;;;9.10;7.50;;;;;;;12.07;100.00;99429.83;109621;1251;60185;-72
2023/09/16 00:28:32;;;;;;;11.70;7.90;;;;;;;12.06;100.00;99424.56;109621;1251;64112;-72
2023/09/16 00:31:00;;;;;;;9.20;7.30;;;;;;;12.05;100.00;99428.91;109614;1250;58954;-72
2023/09/16 00:33:28;;;;;;;10.50;7.60;;;;;;;12.04;100.00;99431.31;109589;1250;58955;-72
2023/09/16 00:35:54;;;;;;;10.00;8.40;;;;;;;12.02;100.00;99424.80;109630;1251;64960;-72
2023/09/16 00:38:21;;;;;;;9.60;7.30;;;;;;;12.01;100.00;99424.36;109635;1251;60158;-72
2023/09/16 00:40:48;;;;;;;9.60;8.20;;;;;;;12.00;100.00;99424.95;109584;1250;63876;-72
2023/09/16 00:43:14;;;;;;;11.70;8.50;;;;;;;11.98;100.00;99426.50;109603;1250;58998;-72
2023/09/16 00:45:41;;;;;;;12.10;7.90;;;;;;;11.96;100.00;99421.86;109607;1250;59190;-72
2023/09/16 00:48:11;;;;;;;9.40;7.80;;;;;;;11.95;100.00;99423.85;109577;1250;65992;-72
2023/09/16 00:50:39;;;;;;;12.60;8.30;;;;;;;11.94;100.00;99422.32;109604;1250;58951;-72
2023/09/16 00:53:06;;;;;;;9.80;8.30;;;;;;;11.94;100.00;99422.52;109567;1250;64035;-72
2023/09/16 00:55:32;;;;;;;9.30;7.60;;;;;;;11.94;100.00;99419.65;109582;1250;59070;-73
2023/09/16 00:57:59;;;;;;;10.40;7.80;;;;;;;11.94;100.00;99421.98;109563;1251;59036;-72
2023/09/16 01:00:28;;;;;;;8.40;7.50;;;;;;;11.92;100.00;99420.70;109595;1250;64786;-72
2023/09/16 01:02:56;;;;;;;10.40;7.80;;;;;;;11.90;100.00;99422.02;109618;1250;61343;-72
2023/09/16 01:05:23;;;;;;;9.60;7.50;;;;;;;11.89;100.00;99423.02;109611;1250;63811;-72
2023/09/16 01:07:50;;;;;;;10.30;8.10;;;;;;;11.87;100.00;99422.26;109569;1250;58953;-72
2023/09/16 01:10:20;;;;;;;9.80;7.00;;;;;;;11.86;100.00;99422.31;109628;1250;59203;-72
2023/09/16 01:12:49;;;;;;;14.80;8.00;;;;;;;11.86;100.00;99419.09;109602;1251;66008;-72
2023/09/16 01:15:18;;;;;;;9.30;7.50;;;;;;;11.86;100.00;99420.17;109628;1251;58982;-72
2023/09/16 01:17:59;;;;;;;12.30;8.60;;;;;;;11.85;100.00;99419.30;109599;1250;62565;-72
2023/09/16 01:20:28;;;;;;;11.90;8.60;;;;;;;11.85;100.00;99418.95;109596;1251;58966;-72
2023/09/16 01:22:55;;;;;;;9.80;7.00;;;;;;;11.84;100.00;99414.40;109631;1250;59141;-72
2023/09/16 01:25:26;;;;;;;10.20;7.90;;;;;;;11.84;100.00;99416.34;109630;1250;66019;-72
2023/09/16 01:27:54;;;;;;;11.70;8.20;;;;;;;11.83;100.00;99412.52;109298;1251;60374;-72
2023/09/16 01:30:23;;;;;;;9.50;7.60;;;;;;;11.81;100.00;99414.02;109539;1251;63782;-72
2023/09/16 01:32:57;;;;;;;9.40;7.70;;;;;;;11.80;100.00;99410.71;109290;1251;59288;-72
2023/09/16 01:35:28;;;;;;;10.70;7.80;;;;;;;11.79;100.00;99409.91;109628;1250;59047;-72
2023/09/16 01:37:58;;;;;;;9.70;8.30;;;;;;;11.78;100.00;99408.73;109386;1250;66060;-72
2023/09/16 01:40:27;;;;;;;11.50;8.40;;;;;;;11.75;100.00;99406.45;109613;1250;60123;-72
2023/09/16 01:42:54;;;;;;;10.60;8.60;;;;;;;11.72;100.00;99406.61;109150;1255;62828;-72
2023/09/16 01:45:21;;;;;;;11.60;8.90;;;;;;;11.71;100.00;99411.52;109055;1256;59055;-72
2023/09/16 01:47:48;;;;;;;9.60;8.60;;;;;;;11.68;100.00;99414.02;109227;1255;59024;-72
2023/09/16 01:50:15;;;;;;;11.70;10.40;;;;;;;11.65;100.00;99415.10;109214;1256;64923;-72
2023/09/16 01:52:41;;;;;;;12.50;9.70;;;;;;;11.63;100.00;99417.87;109209;1255;59340;-72
2023/09/16 01:55:08;;;;;;;10.20;8.60;;;;;;;11.62;100.00;99417.42;109177;1257;59189;-72
2023/09/16 01:57:35;;;;;;;11.50;8.90;;;;;;;11.59;100.00;99420.07;109000;1256;59007;-72
2023/09/16 02:00:30;;;;;;;12.70;9.50;;;;;;;11.57;100.00;99422.71;109219;1255;59081;-71
2023/09/16 02:02:57;;;;;;;10.70;9.00;;;;;;;11.57;100.00;99427.68;108911;1260;64536;-72
2023/09/16 02:05:24;;;;;;;11.40;9.90;;;;;;;11.56;100.00;99427.22;108953;1260;61452;-72
2023/09/16 02:07:50;;;;;;;9.70;8.40;;;;;;;11.56;100.00;99425.83;108914;1260;64133;-72
2023/09/16 02:10:17;;;;;;;13.40;10.10;;;;;;;11.56;100.00;99424.41;108905;1260;59052;-72
2023/09/16 02:12:43;;;;;;;10.70;8.80;;;;;;;11.56;100.00;99421.36;108949;1260;58988;-72
2023/09/16 02:15:10;;;;;;;9.90;8.80;;;;;;;11.57;100.00;99417.58;109198;1255;66059;-72
2023/09/16 02:17:38;;;;;;;10.00;9.00;;;;;;;11.56;100.00;99415.83;109195;1256;59870;-72
2023/09/16 02:20:10;;;;;;;13.30;9.40;;;;;;;11.55;100.00;99411.67;109160;1256;64145;-72
2023/09/16 02:22:37;;;;;;;12.70;8.50;;;;;;;11.52;100.00;99408.08;109030;1255;59075;-72
2023/09/16 02:25:04;;;;;;;11.80;9.70;;;;;;;11.49;100.00;99407.57;109187;1257;58995;-72
2023/09/16 02:27:32;;;;;;;11.70;9.20;;;;;;;11.47;100.00;99413.95;108993;1255;67195;-72
2023/09/16 02:29:58;;;;;;;11.90;10.00;;;;;;;11.45;100.00;99416.91;109232;1255;60181;-72
2023/09/16 02:32:25;;;;;;;12.10;9.80;;;;;;;11.43;100.00;99412.79;109194;1255;64024;-72
2023/09/16 02:34:51;;;;;;;11.00;9.60;;;;;;;11.41;100.00;99413.63;109558;1250;58951;-72
2023/09/16 02:37:20;;;;;;;13.60;10.30;;;;;;;11.40;100.00;99412.23;109556;1251;58952;-72
2023/09/16 02:39:47;;;;;;;14.90;12.20;;;;;;;11.39;100.00;99412.99;109571;1250;65987;-72
2023/09/16 02:42:14;;;;;;;13.30;10.40;;;;;;;11.38;100.00;99411.67;109616;1250;60194;-72
2023/09/16 02:44:40;;;;;;;13.60;10.70;;;;;;;11.36;100.00;99409.85;109623;1250;62484;-72
2023/09/16 02:47:07;;;;;;;13.20;11.20;;;;;;;11.33;100.00;99410.02;109595;1250;59818;-72
2023/09/16 02:49:33;;;;;;;12.50;11.20;;;;;;;11.31;100.00;99413.02;109600;1250;59911;-72
2023/09/16 02:52:00;;;;;;;13.70;11.20;;;;;;;11.29;100.00;99412.61;109576;1250;66094;-72
2023/09/16 02:54:27;;;;;;;15.00;12.00;;;;;;;11.27;100.00;99417.89;109640;1251;60177;-72
2023/09/16 02:56:53;;;;;;;14.40;11.70;;;;;;;11.25;100.00;99419.59;109575;1251;63799;-72
2023/09/16 02:59:20;;;;;;;14.90;11.30;;;;;;;11.24;100.00;99419.51;109583;1251;58949;-72
2023/09/16 03:01:47;;;;;;;12.30;10.70;;;;;;;11.20;100.00;99416.73;109353;1250;59431;-72
2023/09/16 03:04:13;;;;;;;15.10;12.40;;;;;;;11.16;100.00;99413.60;109621;1250;66021;-72
2023/09/16 03:06:40;;;;;;;14.10;11.90;;;;;;;11.13;100.00;99410.91;109569;1251;60013;-72
2023/09/16 03:09:06;;;;;;;16.00;11.70;;;;;;;11.12;100.00;99411.37;109594;1250;63969;-72
2023/09/16 03:11:36;;;;;;;14.50;11.40;;;;;;;11.10;100.00;99409.35;109396;1251;59010;-73
2023/09/16 03:14:02;;;;;;;13.60;12.20;;;;;;;11.09;100.00;99407.27;109619;1251;58970;-72
2023/09/16 03:16:31;;;;;;;13.30;11.90;;;;;;;11.08;100.00;99409.27;109590;1251;64846;-72
2023/09/16 03:18:58;;;;;;;15.60;12.30;;;;;;;11.07;100.00;99403.48;109577;1250;69948;-73
2023/09/16 03:21:25;;;;;;;14.30;12.80;;;;;;;11.07;100.00;99405.27;109593;1251;65047;-72
2023/09/16 03:23:52;;;;;;;15.60;13.40;;;;;;;11.08;100.00;99410.17;109558;1250;59242;-72
2023/09/16 03:26:18;;;;;;;15.90;13.50;;;;;;;11.07;100.00;99411.30;109611;1250;59205;-72
2023/09/16 03:28:46;;;;;;;14.60;12.80;;;;;;;11.06;100.00;99414.20;109620;1250;66026;-72
2023/09/16 03:31:13;;;;;;;14.70;12.60;;;;;;;11.05;100.00;99412.48;109588;1251;60192;-72
2023/09/16 03:33:40;;;;;;;15.40;12.80;;;;;;;11.04;100.00;99409.74;109568;1250;64034;-72
2023/09/16 03:36:07;;;;;;;15.70;13.30;;;;;;;11.02;100.00;99406.27;109621;1251;59060;-72
2023/09/16 03:38:35;;;;;;;17.20;13.60;;;;;;;10.99;100.00;99402.89;109586;1250;59091;-72
2023/09/16 03:41:01;;;;;;;15.90;12.70;;;;;;;10.98;100.00;99399.96;109590;1251;66070;-72
2023/09/16 03:43:28;;;;;;;15.60;13.40;;;;;;;10.98;100.00;99400.32;109609;1251;60207;-72
2023/09/16 03:45:54;;;;;;;16.90;13.90;;;;;;;10.98;100.00;99402.27;109605;1251;62720;-72
2023/09/16 03:48:21;;;;;;;14.80;12.80;;;;;;;10.98;100.00;99400.13;109595;1251;58950;-72
2023/09/16 03:50:48;;;;;;;16.60;12.10;;;;;;;10.97;100.00;99394.13;109595;1251;58997;-72
2023/09/16 03:53:15;;;;;;;17.60;13.00;;;;;;;10.96;100.00;99389.95;109638;1251;64866;-72
2023/09/16 03:55:42;;;;;;;13.80;12.10;;;;;;;10.94;100.00;99390.77;109527;1251;59844;-72
2023/09/16 03:58:08;;;;;;;14.80;11.60;;;;;;;10.94;100.00;99385.80;109562;1251;62527;-72
2023/09/16 04:00:35;;;;;;;13.40;11.20;;;;;;;10.92;100.00;99387.33;109264;1251;59333;-72
2023/09/16 04:03:01;;;;;;;13.50;11.50;;;;;;;10.91;100.00;99389.69;109600;1250;59071;-72
2023/09/16 04:05:28;;;;;;;15.10;12.30;;;;;;;10.90;100.00;99394.58;109612;1251;66846;-72
2023/09/16 04:07:55;;;;;;;14.90;12.60;;;;;;;10.90;100.00;99392.80;109296;1251;60051;-72
2023/09/16 04:10:21;;;;;;;14.60;13.10;;;;;;;10.89;100.00;99392.14;109551;1250;59434;-72
2023/09/16 04:12:48;;;;;;;13.00;11.50;;;;;;;10.89;100.00;99396.28;109200;1251;59037;-72
2023/09/16 04:15:15;;;;;;;13.30;11.80;;;;;;;10.88;100.00;99398.98;109587;1251;58926;-72
2023/09/16 04:17:42;;;;;;;15.10;12.80;;;;;;;10.86;100.00;99399.80;109604;1251;67102;-72
2023/09/16 04:20:09;;;;;;;14.30;12.00;;;;;;;10.85;100.00;99400.61;109633;1250;58988;-72
2023/09/16 04:22:36;;;;;;;14.70;12.20;;;;;;;10.84;100.00;99398.88;109576;1251;62742;-72
2023/09/16 04:25:03;;;;;;;14.70;12.80;;;;;;;10.84;100.00;99398.17;109564;1251;58936;-72
2023/09/16 04:27:30;;;;;;;13.60;12.20;;;;;;;10.84;100.00;99397.29;109313;1250;59261;-72
2023/09/16 04:29:56;;;;;;;14.20;12.10;;;;;;;10.84;100.00;99395.64;109615;1250;66123;-72
2023/09/16 04:32:23;;;;;;;14.30;12.80;;;;;;;10.85;100.00;99398.63;109623;1251;59039;-72
2023/09/16 04:34:49;;;;;;;14.10;12.10;;;;;;;10.85;100.00;99398.23;109600;1250;63872;-71
2023/09/16 04:37:16;;;;;;;13.10;11.80;;;;;;;10.87;100.00;99397.41;109573;1251;59073;-72
2023/09/16 04:39:43;;;;;;;15.60;12.00;;;;;;;10.89;100.00;99401.19;109436;1251;59004;-72
2023/09/16 04:42:09;;;;;;;14.60;12.70;;;;;;;10.93;100.00;99402.02;109596;1251;66033;-72
2023/09/16 04:44:38;;;;;;;16.10;12.30;;;;;;;11.03;100.00;99401.80;109548;1251;60164;-72
2023/09/16 04:47:10;;;;;;;15.10;13.50;;;;;;;11.30;100.00;99402.22;109548;1251;62658;-72
2023/09/16 04:49:37;;;;;;;13.60;12.10;;;;;;;11.70;100.00;99398.40;109589;1251;58994;-72
2023/09/16 04:52:04;;;;;;;12.30;11.00;;;;;;;12.09;100.00;99393.34;109610;1252;59035;-72
2023/09/16 04:54:35;;;;;;;14.40;10.30;;;;;;;12.46;100.00;99390.89;109583;1251;65813;-72
2023/09/16 04:57:02;;;;;;;11.30;10.10;;;;;;;12.83;100.00;99394.17;109583;1251;60299;-72
2023/09/16 04:59:32;;;;;;;11.90;10.20;;;;;;;13.10;100.00;99396.21;109569;1251;63835;-72
2023/09/16 05:01:59;;;;;;;10.00;9.00;;;;;;;13.35;100.00;99396.05;109580;1250;59290;-72
2023/09/16 05:04:26;;;;;;;9.90;8.90;;;;;;;13.64;100.00;99397.38;109373;1251;59014;-72
2023/09/16 05:06:53;;;;;;;11.80;8.60;;;;;;;13.84;100.00;99399.47;109288;1251;66040;-72
2023/09/16 05:09:22;;;;;;;9.70;8.20;;;;;;;14.06;100.00;99397.69;109548;1251;59025;-72
2023/09/16 05:11:48;;;;;;;10.90;7.90;;;;;;;14.25;100.00;99395.34;109553;1251;64017;-72
2023/09/16 05:14:15;;;;;;;10.40;8.60;;;;;;;14.40;100.00;99397.73;109499;1251;59094;-72
2023/09/16 05:16:42;;;;;;;10.50;9.30;;;;;;;14.49;100.00;99400.33;109544;1250;60706;-72
2023/09/16 05:19:08;;;;;;;9.80;8.70;;;;;;;14.62;100.00;99399.50;109593;1251;66107;-72
2023/09/16 05:21:35;;;;;;;9.80;8.00;;;;;;;14.81;100.00;99400.52;109559;1251;60309;-72
2023/09/16 05:24:01;;;;;;;8.40;7.50;;;;;;;14.99;100.00;99397.90;109598;1251;64058;-72
2023/09/16 05:26:28;;;;;;;9.40;7.90;;;;;;;15.15;100.00;99398.42;109563;1251;59001;-72
2023/09/16 05:28:56;;;;;;;9.30;7.70;;;;;;;15.24;100.00;99397.30;109423;1250;58977;-72
2023/09/16 05:31:23;;;;;;;9.50;7.40;;;;;;;15.37;100.00;99398.45;109597;1251;64917;-72
2023/09/16 05:33:50;;;;;;;8.40;7.40;;;;;;;15.49;100.00;99399.83;109594;1251;59343;-72
2023/09/16 05:36:17;;;;;;;8.50;7.70;;;;;;;15.63;100.00;99402.28;109390;1251;63734;-72
2023/09/16 05:38:43;;;;;;;9.60;8.10;;;;;;;15.77;100.00;99404.16;109498;1256;58982;-72
2023/09/16 05:41:10;;;;;;;9.90;7.80;;;;;;;15.91;100.00;99402.48;109604;1251;58881;-72
2023/09/16 05:43:37;;;;;;;7.70;6.90;;;;;;;16.00;100.00;99400.67;109562;1250;64898;-72
2023/09/16 05:46:05;;;;;;;10.30;7.90;;;;;;;16.07;100.00;99399.42;109572;1251;60109;-72
2023/09/16 05:48:32;;;;;;;7.60;6.80;;;;;;;16.11;100.00;99401.05;109579;1251;63772;-72
2023/09/16 05:50:59;;;;;;;8.60;7.80;;;;;;;16.13;100.00;99404.83;109612;1251;59036;-72
2023/09/16 05:53:27;;;;;;;9.00;8.20;;;;;;;15.83;100.00;99411.42;109620;1251;58978;-72
2023/09/16 05:55:53;;;;;;;8.80;7.90;;;;;;;15.49;100.00;99411.81;109625;1251;65997;-71
2023/09/16 05:58:20;;;;;;;9.30;7.70;;;;;;;15.19;100.00;99410.95;109646;1250;58989;-71
2023/09/16 06:00:54;;;;;;;9.00;7.50;;;;;;;15.09;100.00;99411.23;109568;1251;64834;-71
2023/09/16 06:03:21;;;;;;;11.40;8.30;;;;;;;15.25;100.00;99411.59;109540;1255;59302;-71
2023/09/16 06:05:48;;;;;;;9.10;8.00;;;;;;;15.41;100.00;99413.93;109619;1250;58910;-71
2023/09/16 06:08:14;;;;;;;9.40;8.20;;;;;;;15.50;100.00;99414.61;109587;1251;65728;-72
2023/09/16 06:10:41;;;;;;;8.70;7.90;;;;;;;15.61;100.00;99414.37;109572;1251;59019;-70
2023/09/16 06:13:08;;;;;;;7.70;7.00;;;;;;;15.73;100.00;99412.04;109602;1250;59158;-71
2023/09/16 06:15:34;;;;;;;8.40;7.60;;;;;;;15.77;100.00;99411.34;109594;1251;58977;-71
2023/09/16 06:18:01;;;;;;;8.40;7.60;;;;;;;15.72;100.00;99410.29;109613;1251;59007;-71
2023/09/16 06:20:27;;;;;;;8.70;7.90;;;;;;;15.61;100.00;99407.64;109619;1251;66456;-72
2023/09/16 06:22:56;;;;;;;11.10;7.40;;;;;;;15.47;100.00;99408.23;109618;1251;58982;-72
2023/09/16 06:25:23;;;;;;;8.90;8.00;;;;;;;15.39;100.00;99411.17;109599;1251;65205;-71
2023/09/16 06:27:50;;;;;;;8.60;7.80;;;;;;;15.32;100.00;99412.10;109612;1251;59221;-72
2023/09/16 06:30:16;;;;;;;9.10;8.10;;;;;;;15.24;100.00;99409.50;109589;1251;58891;-72
2023/09/16 06:32:43;;;;;;;8.60;7.70;;;;;;;15.20;100.00;99408.77;109604;1251;66169;-72
2023/09/16 06:35:09;;;;;;;8.60;7.70;;;;;;;15.15;100.00;99407.38;109613;1251;60421;-72
2023/09/16 06:37:36;;;;;;;9.30;8.30;;;;;;;15.06;100.00;99403.05;109561;1251;62523;-72
2023/09/16 06:40:03;;;;;;;8.50;7.70;;;;;;;15.02;100.00;99398.94;109582;1250;58954;-72
2023/09/16 06:42:30;;;;;;;8.90;7.90;;;;;;;14.98;100.00;99398.50;109599;1250;59112;-72
2023/09/16 06:44:56;;;;;;;8.80;7.80;;;;;;;14.92;100.00;99402.00;109610;1251;66036;-72
2023/09/16 06:47:26;;;;;;;10.00;7.70;;;;;;;14.88;100.00;99401.59;109601;1250;60171;-72
2023/09/16 06:49:54;;;;;;;8.10;7.10;;;;;;;14.90;100.00;99404.12;109594;1251;63741;-72
2023/09/16 06:52:22;;;;;;;9.60;7.90;;;;;;;14.91;100.00;99404.07;109417;1251;188701;-72
2023/09/16 06:54:49;;;;;;;8.20;7.30;;;;;;;14.95;100.00;99399.44;109607;1251;59023;-72
2023/09/16 06:57:16;;;;;;;10.10;7.00;;;;;;;14.99;100.00;99399.68;109609;1251;65897;-72
2023/09/16 06:59:46;;;;;;;8.10;7.00;;;;;;;15.03;100.00;99400.93;109652;1256;59193;-72
2023/09/16 07:02:13;;;;;;;;;;;;;;;15.09;100.00;99400.70;109626;1251;64083;-72
2023/09/16 07:04:45;;;;;;;8.60;7.20;;;;;;;15.13;100.00;99403.77;109275;1251;58981;-72
2023/09/16 07:07:12;;;;;;;8.40;7.20;;;;;;;15.22;100.00;99407.67;109412;1251;59157;-72
2023/09/16 07:09:39;;;;;;;7.50;6.40;;;;;;;15.35;100.00;99407.69;109590;1250;64819;-72
2023/09/16 07:12:06;;;;;;;8.90;6.90;;;;;;;15.48;100.00;99410.99;109613;1251;60096;-72
2023/09/16 07:14:37;;;;;;;7.10;6.30;;;;;;;15.59;100.00;99414.59;109643;1251;63889;-72
2023/09/16 07:17:04;;;;;;;8.60;6.40;;;;;;;15.72;100.00;99418.95;109581;1251;58960;-72
2023/09/16 07:19:31;;;;;;;6.90;6.30;;;;;;;15.84;100.00;99420.46;109631;1250;58981;-72
2023/09/16 07:21:58;;;;;;;7.60;6.80;;;;;;;15.95;100.00;99420.77;109632;1251;66018;-72
2023/09/16 07:24:24;;;;;;;8.10;6.50;;;;;;;16.05;100.00;99421.22;109614;1251;59050;-72
2023/09/16 07:26:51;;;;;;;7.80;5.90;;;;;;;16.12;100.00;99424.41;109607;1251;62629;-72
2023/09/16 07:29:19;;;;;;;8.50;6.00;;;;;;;16.21;100.00;99426.17;109583;1251;59128;-72
2023/09/16 07:31:45;;;;;;;7.80;5.70;;;;;;;16.30;100.00;99425.83;109635;1254;58952;-72
2023/09/16 07:34:12;;;;;;;9.90;6.20;;;;;;;16.37;100.00;99427.94;109586;1251;64515;-72
2023/09/16 07:36:39;;;;;;;6.70;5.80;;;;;;;16.40;100.00;99426.72;109391;1251;61163;-72
2023/09/16 07:39:05;;;;;;;8.30;6.30;;;;;;;16.49;100.00;99432.08;109575;1251;64063;-72
2023/09/16 07:41:32;;;;;;;7.00;6.30;;;;;;;16.50;100.00;99431.98;109580;1251;58987;-72
2023/09/16 07:43:59;;;;;;;9.90;6.90;;;;;;;16.52;100.00;99428.41;109588;1251;59061;-72
2023/09/16 07:46:25;;;;;;;7.10;6.10;;;;;;;16.54;100.00;99424.14;109663;1251;65730;-72
2023/09/16 07:48:52;;;;;;;6.70;6.00;;;;;;;16.60;100.00;99425.80;109344;1251;60194;-73
2023/09/16 07:51:18;;;;;;;6.80;6.10;;;;;;;16.58;100.00;99427.39;109621;1251;64055;-72
2023/09/16 07:53:45;;;;;;;7.20;5.90;;;;;;;16.53;100.00;99424.16;109574;1251;59224;-72
2023/09/16 07:56:11;;;;;;;7.30;6.20;;;;;;;16.59;100.00;99427.85;109593;1251;58934;-72
2023/09/16 07:58:38;;;;;;;6.70;5.50;;;;;;;16.71;100.00;99425.91;109265;1251;66226;-72
2023/09/16 08:01:04;;;;;;;5.90;5.30;;;;;;;16.85;100.00;99423.30;109619;1251;59008;-72
2023/09/16 08:03:31;;;;;;;7.60;5.90;;;;;;;16.94;100.00;99424.50;109595;1250;64098;-72
2023/09/16 08:05:59;;;;;;;7.60;5.60;;;;;;;16.93;100.00;99421.88;109600;1251;59079;-73
2023/09/16 08:08:25;;;;;;;6.70;5.40;;;;;;;16.93;100.00;99420.88;109643;1251;58976;-73
2023/09/16 08:10:52;;;;;;;6.30;5.60;;;;;;;17.00;100.00;99421.85;109588;1251;59620;-72
2023/09/16 08:13:18;;;;;;;6.10;5.00;;;;;;;17.14;100.00;99425.31;109608;1251;59219;-72
2023/09/16 08:15:45;;;;;;;7.50;5.30;;;;;;;17.27;100.00;99424.19;109556;1251;64177;-67
2023/09/16 08:18:11;;;;;;;7.70;5.50;;;;;;;17.37;100.00;99423.47;109541;1251;59008;-67
2023/09/16 08:20:38;;;;;;;7.30;5.80;;;;;;;17.48;100.00;99418.86;109596;1251;58954;-67
2023/09/16 08:23:06;;;;;;;16.10;12.90;;;;;;;17.61;100.00;99417.90;109613;1251;66126;-67
2023/09/16 08:25:33;;;;;;;6.20;5.50;;;;;;;17.65;100.00;99418.29;109552;1250;59035;-67
2023/09/16 08:27:59;;;;;;;6.60;5.70;;;;;;;17.69;100.00;99416.30;109547;1251;62972;-67
2023/09/16 08:30:26;;;;;;;6.00;5.00;;;;;;;17.77;100.00;99417.01;109568;1251;58945;-66
2023/09/16 08:32:52;;;;;;;5.90;5.20;;;;;;;17.88;100.00;99417.48;109605;1251;59006;-67
2023/09/16 08:35:21;;;;;;;5.80;5.30;;;;;;;18.00;100.00;99418.42;109257;1251;66033;-68
2023/09/16 08:37:48;;;;;;;6.70;5.20;;;;;;;18.11;100.00;99419.33;109577;1251;58996;-67
2023/09/16 08:40:15;;;;;;;5.90;5.40;;;;;;;18.24;100.00;99414.79;109606;1250;64924;-67
2023/09/16 08:42:45;;;;;;;6.20;5.50;;;;;;;18.37;100.00;99417.27;109265;1251;58980;-66
2023/09/16 08:45:14;;;;;;;7.20;5.60;;;;;;;18.41;100.00;99416.96;109554;1251;58974;-67
2023/09/16 08:47:46;;;;;;;7.10;5.70;;;;;;;18.43;100.00;99421.20;109568;1251;65744;-67
2023/09/16 08:50:14;;;;;;;6.90;6.20;;;;;;;18.50;100.00;99413.78;109626;1251;60186;-66
2023/09/16 08:52:52;;;;;;;7.30;6.00;;;;;;;18.60;100.00;99413.48;109620;1251;62874;-67
2023/09/16 08:55:20;;;;;;;7.10;5.90;;;;;;;18.75;100.00;99416.98;109600;1250;58957;-67
2023/09/16 08:58:06;;;;;;;8.30;6.30;;;;;;;18.88;100.00;99414.23;109632;1251;59094;-67
2023/09/16 09:00:32;;;;;;;8.80;6.00;;;;;;;18.98;100.00;99412.86;109615;1251;66041;-67
2023/09/16 09:02:59;;;;;;;6.40;5.50;;;;;;;19.00;100.00;99411.06;109683;1251;59853;-67
2023/09/16 09:05:27;;;;;;;6.20;5.20;;;;;;;18.97;100.00;99409.02;109287;1251;62886;-67
2023/09/16 09:07:53;;;;;;;6.30;5.40;;;;;;;19.01;100.00;99409.55;109551;1250;59313;-67
2023/09/16 09:10:20;;;;;;;7.10;5.70;;;;;;;19.12;100.00;99409.58;109316;1251;59085;-67
2023/09/16 09:12:47;;;;;;;8.90;6.70;;;;;;;19.18;100.00;99409.03;109556;1251;64508;-67
2023/09/16 09:15:15;;;;;;;7.00;6.30;;;;;;;19.24;100.00;99408.20;109638;1251;59871;-66
2023/09/16 09:17:46;;;;;;;8.50;6.90;;;;;;;19.37;100.00;99409.15;109567;1250;64048;-66
2023/09/16 09:20:22;;;;;;;10.60;7.00;;;;;;;19.49;100.00;99410.88;109560;1250;58959;-67
2023/09/16 09:22:50;;;;;;;8.10;7.30;;;;;;;19.57;100.00;99410.26;109375;1251;59407;-67
2023/09/16 09:25:24;;;;;;;9.10;7.00;;;;;;;19.54;100.00;99408.23;109625;1250;65743;-67
2023/09/16 09:27:52;;;;;;;9.70;6.80;;;;;;;19.46;100.00;99410.09;109615;1250;59742;-66
2023/09/16 09:30:27;;;;;;;8.80;7.30;;;;;;;19.43;100.00;99408.73;109556;1251;64068;-66
2023/09/16 09:32:57;;;;;;;7.40;6.70;;;;;;;19.47;100.00;99406.39;109630;1251;58957;-66
2023/09/16 09:35:25;;;;;;;7.00;5.90;;;;;;;19.56;100.00;99405.70;109653;1251;59024;-67
2023/09/16 09:37:52;;;;;;;8.20;6.50;;;;;;;19.67;100.00;99408.36;109621;1251;66865;-67
2023/09/16 09:40:19;;;;;;;8.30;6.90;;;;;;;19.84;100.00;99408.48;109684;1251;59229;-67
2023/09/16 09:42:51;;;;;;;9.10;7.70;;;;;;;20.00;100.00;99405.88;109590;1250;63804;-66
2023/09/16 09:45:20;;;;;;;9.20;8.20;;;;;;;20.15;100.00;99404.53;109386;1259;59057;-67
2023/09/16 09:47:50;;;;;;;9.10;7.10;;;;;;;20.32;100.00;99403.95;109646;1250;58913;-67
2023/09/16 09:50:19;;;;;;;8.90;8.00;;;;;;;20.42;100.00;99406.39;109619;1251;66065;-67
2023/09/16 09:52:53;;;;;;;11.10;7.60;;;;;;;20.50;100.00;99406.77;109614;1251;59113;-68
2023/09/16 09:55:22;;;;;;;7.90;7.10;;;;;;;20.63;100.00;99406.98;109611;1250;62811;-68
2023/09/16 09:57:51;;;;;;;8.20;7.40;;;;;;;20.72;100.00;99405.63;109653;1250;59167;-67
2023/09/16 10:00:20;;;;;;;8.40;7.50;;;;;;;20.71;100.00;99402.84;109613;1251;59382;-67
2023/09/16 10:02:47;;;;;;;8.10;6.90;;;;;;;20.71;100.00;99399.05;109645;1250;67288;-67
2023/09/16 10:05:21;;;;;;;8.60;7.40;;;;;;;20.72;100.00;99398.01;109622;1251;59895;-67
2023/09/16 10:07:48;;;;;;;9.70;7.50;;;;;;;20.74;100.00;99394.47;109630;1250;62916;-67
2023/09/16 10:10:22;;;;;;;8.10;6.80;;;;;;;20.71;100.00;99390.95;109617;1250;58998;-68
2023/09/16 10:12:51;;;;;;;8.40;7.00;;;;;;;20.81;100.00;99387.56;109432;1251;58953;-67
2023/09/16 10:15:40;;;;;;;10.30;7.70;;;;;;;20.91;100.00;99385.77;109626;1250;67073;-66
2023/09/16 10:18:07;;;;;;;8.50;7.70;;;;;;;20.99;100.00;99380.84;109657;1250;59641;-66
2023/09/16 10:20:37;;;;;;;10.20;7.90;;;;;;;21.08;100.00;99379.00;109631;1250;64088;-67
2023/09/16 10:23:05;;;;;;;9.50;7.00;;;;;;;21.12;100.00;99377.63;109607;1250;58966;-67
2023/09/16 10:25:32;;;;;;;8.60;7.00;;;;;;;21.19;100.00;99374.17;109298;1253;58982;-67
2023/09/16 10:28:03;;;;;;;8.20;7.30;;;;;;;21.27;100.00;99372.86;109511;1252;66046;-66
2023/09/16 10:30:31;;;;;;;11.30;8.80;;;;;;;21.28;100.00;99368.77;109563;1251;59044;-67
2023/09/16 10:33:06;;;;;;;7.70;6.60;;;;;;;21.26;100.00;99367.55;109553;1250;62501;-67
2023/09/16 10:35:37;;;;;;;9.00;7.50;;;;;;;21.26;100.00;99359.37;109613;1250;59015;-67
2023/09/16 10:38:05;;;;;;;8.50;7.70;;;;;;;21.30;100.00;99358.64;109615;1250;59010;-67
2023/09/16 10:40:32;;;;;;;10.90;8.90;;;;;;;21.32;100.00;99352.28;109629;1250;64912;-67
2023/09/16 10:43:01;;;;;;;11.00;8.40;;;;;;;21.36;100.00;99349.33;109614;1250;60116;-67
2023/09/16 10:45:28;;;;;;;8.80;7.90;;;;;;;21.39;100.00;99350.77;109589;1250;63798;-67
2023/09/16 10:47:55;;;;;;;9.00;7.80;;;;;;;21.46;100.00;99346.95;109633;1251;58926;-66
2023/09/16 10:50:29;;;;;;;7.50;6.50;;;;;;;21.60;100.00;99348.23;109390;1251;59123;-67
2023/09/16 10:53:10;;;;;;;8.60;6.90;;;;;;;21.70;100.00;99347.64;109645;1250;64659;-67
2023/09/16 10:55:44;;;;;;;7.70;6.80;;;;;;;21.80;100.00;99346.55;109609;1250;59310;-66
2023/09/16 10:58:47;;;;;;;7.00;6.40;;;;;;;21.87;100.00;99342.41;109631;1250;63870;-66
2023/09/16 11:01:37;;;;;;;8.40;6.90;;;;;;;21.89;100.00;99345.23;108891;1259;58973;-66
2023/09/16 11:04:18;;;;;;;8.80;7.70;;;;;;;21.87;100.00;99353.82;108931;1259;59270;-66
2023/09/16 11:06:50;;;;;;;9.50;6.60;;;;;;;21.89;100.00;99352.96;108824;1259;64933;-66
2023/09/16 11:09:19;;;;;;;7.90;6.30;;;;;;;22.01;100.00;99349.40;108957;1259;59932;-66
2023/09/16 11:11:47;;;;;;;7.80;6.90;;;;;;;22.08;100.00;99345.65;108822;1259;65136;-66
2023/09/16 11:14:14;;;;;;;7.10;6.10;;;;;;;22.12;100.00;99341.65;108917;1259;59229;-67
2023/09/16 11:16:58;;;;;;;7.30;6.60;;;;;;;22.14;100.00;99340.66;108914;1260;59269;-67